Time;durP1;ratioP1;P1;durP2;ratioP2;P2;SDS_P1;SDS_P2;PMS_P1;PMS_P2;Temp;Humidity;BMP_temperature;BMP_pressure;BME280_temperature;BME280_humidity;BME280_pressure;Samples;Min_cycle;Max_cycle;Signal;HPM_P1;HPM_P2
2022/01/29 00:00:29;;;;;;;18.45;9.90;;;3.40;99.90;;;;;;5089874;28;20390;-57
2022/01/29 00:02:54;;;;;;;18.23;10.55;;;3.40;99.90;;;;;;5087810;28;20379;-57
2022/01/29 00:05:20;;;;;;;16.60;9.40;;;3.10;99.90;;;;;;5089704;28;20378;-57
2022/01/29 00:07:46;;;;;;;18.55;9.98;;;3.00;99.90;;;;;;5089292;28;20391;-57
2022/01/29 00:10:12;;;;;;;22.45;10.27;;;2.90;99.90;;;;;;5089691;28;20789;-57
2022/01/29 00:12:39;;;;;;;18.10;9.45;;;2.90;99.90;;;;;;5086986;28;20407;-57
2022/01/29 00:15:05;;;;;;;19.55;9.75;;;3.00;99.90;;;;;;5086077;28;20921;-57
2022/01/29 00:17:31;;;;;;;18.48;9.45;;;3.10;99.90;;;;;;5088604;28;20402;-57
2022/01/29 00:19:57;;;;;;;19.73;9.55;;;3.10;99.90;;;;;;5087282;28;20805;-57
2022/01/29 00:22:23;;;;;;;21.63;9.45;;;3.20;99.90;;;;;;5089467;28;20378;-57
2022/01/29 00:24:49;;;;;;;18.08;9.07;;;3.30;99.90;;;;;;5088994;28;20382;-57
2022/01/29 00:27:15;;;;;;;15.40;9.27;;;3.40;99.90;;;;;;5089523;28;20374;-58
2022/01/29 00:29:42;;;;;;;17.02;9.02;;;3.50;99.90;;;;;;5089273;28;20421;-57
2022/01/29 00:32:11;;;;;;;17.70;9.13;;;3.40;99.90;;;;;;5089337;28;20444;-58
2022/01/29 00:34:37;;;;;;;19.45;9.25;;;3.30;99.90;;;;;;5089185;28;20382;-57
2022/01/29 00:37:03;;;;;;;17.05;8.77;;;3.20;99.90;;;;;;5088613;28;20389;-58
2022/01/29 00:39:29;;;;;;;18.67;9.77;;;3.20;99.90;;;;;;5089186;28;20386;-57
2022/01/29 00:41:55;;;;;;;18.50;8.95;;;3.20;99.90;;;;;;5088486;28;20393;-57
2022/01/29 00:44:21;;;;;;;17.08;9.20;;;3.20;99.90;;;;;;5089256;28;20410;-55
2022/01/29 00:46:47;;;;;;;17.53;10.20;;;3.20;99.90;;;;;;5090153;28;20473;-55
2022/01/29 00:49:14;;;;;;;15.53;9.00;;;3.20;99.90;;;;;;5091395;28;20390;-56
2022/01/29 00:51:40;;;;;;;18.55;9.98;;;3.20;99.90;;;;;;5090383;28;20462;-56
2022/01/29 00:54:06;;;;;;;17.65;9.82;;;3.20;99.90;;;;;;5089055;28;20386;-57
2022/01/29 00:56:31;;;;;;;19.35;9.90;;;3.20;99.90;;;;;;5090122;28;20461;-56
2022/01/29 00:58:57;;;;;;;18.45;9.63;;;4.50;99.90;;;;;;5088518;28;20512;-57
2022/01/29 01:01:24;;;;;;;18.90;10.23;;;3.10;99.90;;;;;;5085577;28;20502;-56
2022/01/29 01:03:50;;;;;;;17.40;9.90;;;3.10;99.90;;;;;;5088598;28;20382;-56
2022/01/29 01:06:16;;;;;;;20.73;10.57;;;3.30;99.90;;;;;;5089031;28;20375;-56
2022/01/29 01:08:42;;;;;;;21.35;10.52;;;5.10;99.90;;;;;;5088641;28;20378;-57
2022/01/29 01:11:08;;;;;;;23.87;11.20;;;4.50;99.90;;;;;;5088729;28;20439;-57
2022/01/29 01:13:34;;;;;;;32.77;15.07;;;3.20;99.90;;;;;;5089145;28;20394;-56
2022/01/29 01:16:01;;;;;;;19.30;10.30;;;3.30;99.90;;;;;;5088719;28;20430;-57
2022/01/29 01:18:28;;;;;;;21.05;10.90;;;4.90;99.90;;;;;;5088830;28;20488;-57
2022/01/29 01:20:54;;;;;;;19.67;10.50;;;3.40;99.90;;;;;;5086944;28;20815;-57
2022/01/29 01:23:21;;;;;;;20.50;10.23;;;3.60;99.90;;;;;;5088907;28;20378;-56
2022/01/29 01:25:47;;;;;;;16.45;9.02;;;3.10;99.90;;;;;;5088191;28;20382;-56
2022/01/29 01:28:13;;;;;;;17.60;9.65;;;3.20;99.90;;;;;;5087624;28;20759;-57
2022/01/29 01:30:38;;;;;;;17.73;9.95;;;3.10;99.90;;;;;;5090789;28;20436;-57
2022/01/29 01:33:05;;;;;;;24.57;9.40;;;3.10;99.90;;;;;;5090917;28;20406;-56
2022/01/29 01:35:41;;;;;;;17.15;9.05;;;3.20;99.90;;;;;;5092963;28;20384;-56
2022/01/29 01:38:18;;;;;;;17.90;9.63;;;3.20;99.90;;;;;;5092346;28;20404;-56
2022/01/29 01:40:48;;;;;;;16.08;8.75;;;3.20;99.90;;;;;;5092664;28;20485;-56
2022/01/29 01:43:14;;;;;;;18.67;8.97;;;3.20;99.90;;;;;;5090413;28;20385;-57
2022/01/29 01:45:40;;;;;;;21.30;9.43;;;3.10;99.90;;;;;;5092697;28;20445;-56
2022/01/29 01:48:06;;;;;;;19.20;9.13;;;3.40;99.90;;;;;;5091972;28;20382;-56
2022/01/29 01:50:34;;;;;;;17.20;9.23;;;3.30;99.90;;;;;;5090999;28;20728;-56
2022/01/29 01:52:59;;;;;;;20.20;9.50;;;3.30;99.90;;;;;;5090498;28;20406;-56
2022/01/29 01:55:25;;;;;;;17.58;9.27;;;3.30;99.90;;;;;;5090732;28;20898;-56
2022/01/29 01:57:52;;;;;;;19.83;10.02;;;3.30;99.90;;;;;;5091658;28;20889;-56
2022/01/29 02:00:18;;;;;;;20.38;10.00;;;3.30;99.90;;;;;;5092367;28;20390;-57
2022/01/29 02:02:44;;;;;;;20.55;9.98;;;3.30;99.90;;;;;;5092105;28;20881;-56
2022/01/29 02:05:10;;;;;;;17.77;9.67;;;3.30;99.90;;;;;;5092304;28;20402;-56
2022/01/29 02:07:37;;;;;;;19.10;10.10;;;3.30;99.90;;;;;;5092517;28;20773;-56
2022/01/29 02:10:09;;;;;;;20.90;10.43;;;3.30;99.90;;;;;;5091571;28;20469;-56
2022/01/29 02:13:09;;;;;;;21.17;10.35;;;3.30;99.90;;;;;;5092269;28;20516;-56
2022/01/29 02:15:36;;;;;;;21.45;10.55;;;3.20;99.90;;;;;;5066604;28;20409;-57
2022/01/29 02:18:02;;;;;;;19.90;10.35;;;3.20;99.90;;;;;;5091028;28;20520;-57
2022/01/29 02:20:29;;;;;;;18.48;9.80;;;3.30;99.90;;;;;;5092272;28;20548;-56
2022/01/29 02:22:56;;;;;;;20.85;10.30;;;5.10;99.90;;;;;;5091034;28;20382;-57
2022/01/29 02:25:31;;;;;;;21.85;10.65;;;3.40;99.90;;;;;;5092259;28;20397;-56
2022/01/29 02:28:03;;;;;;;20.92;10.18;;;4.50;99.90;;;;;;5088432;28;20890;-56
2022/01/29 02:30:31;;;;;;;22.10;11.25;;;4.20;99.90;;;;;;5091910;28;20370;-57
2022/01/29 02:32:58;;;;;;;17.75;10.25;;;3.50;99.90;;;;;;5088330;28;20489;-57
2022/01/29 02:35:24;;;;;;;21.98;10.48;;;3.40;99.90;;;;;;5091548;28;20416;-56
2022/01/29 02:37:52;;;;;;;22.85;11.77;;;5.10;99.90;;;;;;5090989;28;20891;-56
2022/01/29 02:40:19;;;;;;;23.15;11.70;;;3.30;99.90;;;;;;5089243;28;20851;-57
2022/01/29 02:42:44;;;;;;;25.73;12.43;;;3.20;99.90;;;;;;5090788;28;20389;-56
2022/01/29 02:45:10;;;;;;;20.83;10.60;;;4.00;99.90;;;;;;5090833;28;20465;-56
2022/01/29 02:47:36;;;;;;;23.17;12.30;;;3.00;99.90;;;;;;5091574;28;20440;-56
2022/01/29 02:50:02;;;;;;;20.77;10.75;;;2.80;99.90;;;;;;5089584;28;20817;-56
2022/01/29 02:52:27;;;;;;;22.50;11.15;;;2.80;99.90;;;;;;5091430;28;20929;-56
2022/01/29 02:54:53;;;;;;;21.07;10.70;;;2.90;99.90;;;;;;5090745;28;20448;-57
2022/01/29 02:57:19;;;;;;;20.55;10.80;;;2.90;99.90;;;;;;5088885;28;20374;-56
2022/01/29 02:59:44;;;;;;;21.30;11.07;;;2.90;99.90;;;;;;5090960;28;20386;-56
2022/01/29 03:02:10;;;;;;;22.08;11.20;;;2.90;99.90;;;;;;5090847;28;20553;-56
2022/01/29 03:04:36;;;;;;;22.25;10.45;;;3.00;99.90;;;;;;5091426;28;20750;-57
2022/01/29 03:07:02;;;;;;;21.63;9.55;;;3.00;99.90;;;;;;5087803;28;20406;-56
2022/01/29 03:09:27;;;;;;;19.97;10.60;;;3.00;99.90;;;;;;5090231;28;20386;-57
2022/01/29 03:11:56;;;;;;;19.75;10.35;;;3.10;99.90;;;;;;5090495;28;20864;-56
2022/01/29 03:14:22;;;;;;;20.85;10.30;;;3.20;99.90;;;;;;5088767;28;20398;-57
2022/01/29 03:16:47;;;;;;;20.73;10.10;;;3.70;99.90;;;;;;5090070;28;20418;-57
2022/01/29 03:19:13;;;;;;;20.15;10.30;;;3.20;99.90;;;;;;5091373;28;20378;-57
2022/01/29 03:21:38;;;;;;;20.73;10.13;;;3.30;99.90;;;;;;5090974;28;20416;-57
2022/01/29 03:24:04;;;;;;;19.42;10.05;;;3.20;99.90;;;;;;5090641;28;20438;-57
2022/01/29 03:26:30;;;;;;;18.02;10.13;;;3.20;99.90;;;;;;5091242;28;20434;-57
2022/01/29 03:28:56;;;;;;;21.75;10.73;;;3.20;99.90;;;;;;5090219;28;20374;-56
2022/01/29 03:31:26;;;;;;;21.60;9.90;;;3.20;99.90;;;;;;5090855;28;20402;-57
2022/01/29 03:33:52;;;;;;;15.82;8.55;;;3.20;99.90;;;;;;5089971;28;20393;-57
2022/01/29 03:36:17;;;;;;;18.55;9.68;;;4.20;99.90;;;;;;5090632;28;20386;-57
2022/01/29 03:38:44;;;;;;;18.50;9.38;;;3.30;99.90;;;;;;5088041;28;20389;-57
2022/01/29 03:41:10;;;;;;;20.40;9.77;;;3.40;99.90;;;;;;5089067;28;20790;-57
2022/01/29 03:43:43;;;;;;;18.60;9.30;;;4.00;99.90;;;;;;5089431;28;20735;-57
2022/01/29 03:46:09;;;;;;;17.30;9.07;;;4.40;99.90;;;;;;5087780;28;20398;-57
2022/01/29 03:48:34;;;;;;;18.65;9.57;;;3.50;99.90;;;;;;5090402;28;20435;-56
2022/01/29 03:51:00;;;;;;;19.23;9.67;;;3.50;99.90;;;;;;5089693;28;20375;-56
2022/01/29 03:53:25;;;;;;;18.95;9.75;;;3.60;99.90;;;;;;5089536;28;20417;-57
2022/01/29 03:55:51;;;;;;;20.03;10.03;;;3.50;99.90;;;;;;5089653;28;20874;-56
2022/01/29 03:58:16;;;;;;;21.63;9.90;;;3.80;99.90;;;;;;5088468;28;20388;-57
2022/01/29 04:00:42;;;;;;;21.60;10.53;;;3.40;99.90;;;;;;5089105;28;20839;-57
2022/01/29 04:03:08;;;;;;;18.50;9.50;;;3.70;99.90;;;;;;5088215;28;20382;-57
2022/01/29 04:05:34;;;;;;;21.35;9.68;;;3.40;99.90;;;;;;5090020;28;20386;-57
2022/01/29 04:08:00;;;;;;;22.02;9.88;;;3.60;99.90;;;;;;5089413;28;20879;-56
2022/01/29 04:10:28;;;;;;;19.20;9.80;;;3.50;99.90;;;;;;5087513;28;20848;-57
2022/01/29 04:12:54;;;;;;;18.02;9.93;;;4.10;99.90;;;;;;5089338;28;20405;-56
2022/01/29 04:15:20;;;;;;;20.73;10.20;;;3.20;99.90;;;;;;5090176;28;20394;-57
2022/01/29 04:17:46;;;;;;;19.85;9.65;;;3.20;99.90;;;;;;5088192;28;20489;-56
2022/01/29 04:20:12;;;;;;;17.50;9.90;;;3.20;99.90;;;;;;5089485;28;20416;-56
2022/01/29 04:22:37;;;;;;;20.63;9.57;;;3.10;99.90;;;;;;5088868;28;20386;-57
2022/01/29 04:25:03;;;;;;;18.52;10.02;;;3.10;99.90;;;;;;5089560;28;20397;-56
2022/01/29 04:27:37;;;;;;;20.30;10.23;;;3.10;99.90;;;;;;5090318;28;20397;-56
2022/01/29 04:30:09;;;;;;;18.55;9.93;;;3.10;99.90;;;;;;5089025;28;20386;-57
2022/01/29 04:35:06;;;;;;;18.73;10.23;;;3.10;99.90;;;;;;5089927;28;20580;-56
2022/01/29 04:37:32;;;;;;;19.70;9.88;;;3.10;99.90;;;;;;5089489;28;20387;-56
2022/01/29 04:39:58;;;;;;;21.25;10.57;;;3.00;99.90;;;;;;5088969;28;20393;-56
2022/01/29 04:42:24;;;;;;;19.73;10.30;;;3.10;99.90;;;;;;5089719;28;20470;-57
2022/01/29 04:44:49;;;;;;;18.45;9.27;;;3.10;99.90;;;;;;5088818;28;20381;-57
2022/01/29 04:47:15;;;;;;;19.48;10.18;;;3.30;99.90;;;;;;5089725;28;20386;-57
2022/01/29 04:49:40;;;;;;;20.10;10.80;;;3.20;99.90;;;;;;5089485;28;20467;-56
2022/01/29 04:52:06;;;;;;;21.85;10.20;;;3.40;99.90;;;;;;5087305;28;20406;-57
2022/01/29 04:54:33;;;;;;;22.80;11.10;;;3.40;99.90;;;;;;5089517;28;20378;-56
2022/01/29 04:56:58;;;;;;;20.90;10.93;;;3.40;99.90;;;;;;5088350;28;20457;-57
2022/01/29 04:59:24;;;;;;;20.75;10.73;;;4.60;99.90;;;;;;5089388;28;20466;-57
2022/01/29 05:01:50;;;;;;;21.20;11.17;;;4.20;99.90;;;;;;5088708;28;20416;-57
2022/01/29 05:04:15;;;;;;;22.70;12.07;;;3.50;99.90;;;;;;5089335;28;20382;-57
2022/01/29 05:06:41;;;;;;;23.35;12.30;;;5.00;99.90;;;;;;5089093;28;20448;-57
2022/01/29 05:09:09;;;;;;;24.60;13.10;;;3.40;99.90;;;;;;5088800;28;20386;-57
2022/01/29 05:11:35;;;;;;;26.80;14.85;;;3.60;99.90;;;;;;5088829;28;20406;-56
2022/01/29 05:14:02;;;;;;;29.20;14.38;;;3.60;99.90;;;;;;5088716;28;20459;-56
2022/01/29 05:26:48;;;;;;;31.80;15.32;;;3.60;99.90;;;;;;5088680;28;20420;-56
2022/01/29 05:27:28;;;;;;;31.42;15.57;;;3.50;99.90;;;;;;5088241;28;20765;-56
2022/01/29 05:29:54;;;;;;;33.63;16.80;;;3.60;99.90;;;;;;5088420;28;20449;-56
2022/01/29 05:32:22;;;;;;;33.07;17.73;;;3.30;99.90;;;;;;5088851;28;20495;-56
2022/01/29 05:34:47;;;;;;;29.08;15.95;;;3.10;99.90;;;;;;5088815;28;20386;-57
2022/01/29 05:37:13;;;;;;;31.33;15.17;;;2.90;99.90;;;;;;5088266;28;20371;-56
2022/01/29 05:39:45;;;;;;;32.40;16.60;;;2.80;99.90;;;;;;5088813;28;20485;-58
2022/01/29 05:42:11;;;;;;;30.75;16.23;;;2.70;99.90;;;;;;5088575;28;20381;-58
2022/01/29 05:44:36;;;;;;;31.75;16.25;;;2.70;99.90;;;;;;5088717;28;20378;-58
2022/01/29 05:47:08;;;;;;;31.10;15.10;;;2.60;99.90;;;;;;5087762;28;20478;-58
2022/01/29 05:49:35;;;;;;;28.65;15.20;;;2.60;99.90;;;;;;5088755;28;20487;-58
2022/01/29 05:52:00;;;;;;;31.20;16.42;;;2.60;99.90;;;;;;5087925;28;20406;-54
2022/01/29 05:54:26;;;;;;;29.80;14.40;;;2.60;99.90;;;;;;5088521;28;20413;-56
2022/01/29 05:56:52;;;;;;;27.80;14.37;;;2.70;99.90;;;;;;5087802;28;20822;-56
2022/01/29 05:59:17;;;;;;;30.10;14.73;;;2.50;99.90;;;;;;5088505;28;20378;-56
2022/01/29 06:01:43;;;;;;;28.83;15.10;;;2.60;99.90;;;;;;5088105;28;20386;-54
2022/01/29 06:04:09;;;;;;;33.00;15.60;;;3.60;99.90;;;;;;5087721;28;20370;-54
2022/01/29 06:06:34;;;;;;;30.80;14.90;;;2.40;99.90;;;;;;5085993;28;21000;-54
2022/01/29 06:09:04;;;;;;;30.30;14.63;;;3.30;99.90;;;;;;5086481;28;20375;-55
2022/01/29 06:11:33;;;;;;;30.05;14.98;;;2.50;99.90;;;;;;5086836;28;20398;-54
2022/01/29 06:13:59;;;;;;;32.47;16.25;;;2.50;99.90;;;;;;5084115;28;20473;-55
2022/01/29 06:16:25;;;;;;;30.08;15.05;;;2.50;99.90;;;;;;5084607;28;20441;-54
2022/01/29 06:18:50;;;;;;;29.48;14.85;;;3.70;99.90;;;;;;5090371;28;20409;-55
2022/01/29 06:21:16;;;;;;;32.87;16.27;;;2.60;99.90;;;;;;5092313;28;20439;-55
2022/01/29 06:23:43;;;;;;;31.92;16.15;;;2.50;99.90;;;;;;5092306;28;20386;-55
2022/01/29 06:26:10;;;;;;;31.52;14.68;;;2.50;99.90;;;;;;5091232;28;20624;-55
2022/01/29 06:28:37;;;;;;;28.20;14.90;;;2.50;99.90;;;;;;5091284;28;20397;-55
2022/01/29 06:31:03;;;;;;;29.95;15.00;;;4.10;99.90;;;;;;5091326;28;20451;-55
2022/01/29 06:33:29;;;;;;;29.55;14.65;;;2.60;99.90;;;;;;5091705;28;20414;-55
2022/01/29 06:35:54;;;;;;;32.13;13.93;;;2.40;99.90;;;;;;5091202;28;20845;-55
2022/01/29 06:38:20;;;;;;;30.05;14.57;;;2.30;99.90;;;;;;5092159;28;20374;-55
2022/01/29 06:40:46;;;;;;;28.08;13.90;;;2.30;99.90;;;;;;5091678;28;20740;-55
2022/01/29 06:43:13;;;;;;;28.00;14.35;;;1.10;99.90;;;;;;5091562;28;20378;-55
2022/01/29 06:45:40;;;;;;;27.20;13.43;;;2.40;99.90;;;;;;5091861;28;20432;-55
2022/01/29 06:48:06;;;;;;;29.00;14.15;;;2.40;99.90;;;;;;5091141;28;20476;-55
2022/01/29 06:50:33;;;;;;;29.30;14.10;;;2.40;99.90;;;;;;5092120;28;20808;-54
2022/01/29 06:52:59;;;;;;;28.58;14.18;;;2.60;99.90;;;;;;5080920;28;20420;-54
2022/01/29 06:55:24;;;;;;;31.05;14.32;;;2.70;99.90;;;;;;5092057;28;20434;-54
2022/01/29 06:57:50;;;;;;;29.70;15.30;;;2.80;99.90;;;;;;5091068;28;20863;-56
2022/01/29 07:00:16;;;;;;;27.47;14.47;;;2.80;99.90;;;;;;5091361;28;20379;-55
2022/01/29 07:02:42;;;;;;;32.40;15.20;;;2.90;99.90;;;;;;5091610;28;20401;-54
2022/01/29 07:05:09;;;;;;;29.63;14.35;;;2.90;99.90;;;;;;5082859;28;20398;-56
2022/01/29 07:07:35;;;;;;;25.52;13.27;;;2.90;99.90;;;;;;5092208;28;20390;-54
2022/01/29 07:10:00;;;;;;;30.15;14.40;;;3.00;99.90;;;;;;5090345;28;20378;-55
2022/01/29 07:12:26;;;;;;;28.30;13.83;;;4.10;99.90;;;;;;5091139;28;20410;-55
2022/01/29 07:14:52;;;;;;;27.20;14.27;;;3.00;99.90;;;;;;5090270;28;20481;-56
2022/01/29 07:17:22;;;;;;;27.95;14.88;;;2.90;99.90;;;;;;5090863;28;20421;-56
2022/01/29 07:19:48;;;;;;;25.80;13.07;;;2.90;99.90;;;;;;5090982;28;20443;-55
2022/01/29 07:22:14;;;;;;;25.93;13.80;;;2.80;99.90;;;;;;5090040;28;20414;-55
2022/01/29 07:24:40;;;;;;;27.63;13.63;;;2.80;99.90;;;;;;5083172;28;20817;-56
2022/01/29 07:27:06;;;;;;;30.98;15.40;;;3.60;99.90;;;;;;5074382;28;20398;-56
2022/01/29 07:29:32;;;;;;;28.42;14.80;;;3.00;99.90;;;;;;5071662;28;20392;-56
2022/01/29 07:31:58;;;;;;;24.92;13.20;;;3.80;99.90;;;;;;5070589;28;20435;-56
2022/01/29 07:34:25;;;;;;;30.52;14.73;;;5.00;99.90;;;;;;5074594;28;20423;-56
2022/01/29 07:36:52;;;;;;;30.13;15.10;;;2.90;99.90;;;;;;5069983;28;20546;-56
2022/01/29 07:39:18;;;;;;;24.23;13.25;;;3.00;99.90;;;;;;5070716;28;20764;-55
2022/01/29 07:41:45;;;;;;;25.50;13.23;;;3.10;99.90;;;;;;5071424;28;20481;-56
2022/01/29 07:44:10;;;;;;;23.15;12.20;;;3.20;99.90;;;;;;5074102;28;20388;-55
2022/01/29 07:46:36;;;;;;;23.43;12.93;;;3.30;99.90;;;;;;5082023;28;20490;-56
2022/01/29 07:49:02;;;;;;;20.33;11.60;;;3.40;99.90;;;;;;5077935;28;20398;-56
2022/01/29 07:51:28;;;;;;;23.50;12.10;;;3.60;99.90;;;;;;5089989;28;20390;-56
2022/01/29 07:53:53;;;;;;;25.40;11.57;;;3.60;99.90;;;;;;5089713;28;20385;-56
2022/01/29 07:56:22;;;;;;;21.37;11.33;;;3.70;99.90;;;;;;5089074;28;20398;-56
2022/01/29 07:58:48;;;;;;;22.15;11.52;;;3.80;99.90;;;;;;5088982;28;20442;-57
2022/01/29 08:01:14;;;;;;;18.98;11.18;;;3.90;99.90;;;;;;5089847;28;20855;-57
2022/01/29 08:03:40;;;;;;;20.05;10.32;;;4.00;99.90;;;;;;5090720;28;20393;-57
2022/01/29 08:06:06;;;;;;;23.00;11.20;;;4.10;99.90;;;;;;5089264;28;20495;-57
2022/01/29 08:08:31;;;;;;;19.40;10.15;;;4.10;99.90;;;;;;5077474;28;20484;-57
2022/01/29 08:10:57;;;;;;;18.13;9.57;;;4.20;99.90;;;;;;5089416;28;20382;-57
2022/01/29 08:13:23;;;;;;;18.35;10.07;;;4.20;99.90;;;;;;5090582;28;20404;-57
2022/01/29 08:15:49;;;;;;;20.88;9.73;;;4.20;99.90;;;;;;5072519;28;20431;-56
2022/01/29 08:18:15;;;;;;;19.40;10.67;;;4.10;99.90;;;;;;5081338;28;20424;-56
2022/01/29 08:20:41;;;;;;;15.23;8.80;;;4.10;99.90;;;;;;5077038;28;20391;-56
2022/01/29 08:23:10;;;;;;;17.40;8.60;;;3.80;99.90;;;;;;5078664;28;20413;-56
2022/01/29 08:25:37;;;;;;;17.48;8.55;;;4.70;99.90;;;;;;5075177;28;20494;-56
2022/01/29 08:28:03;;;;;;;14.60;8.02;;;3.90;99.90;;;;;;5068124;28;20376;-57
2022/01/29 08:30:29;;;;;;;15.00;7.50;;;3.90;99.90;;;;;;5068685;28;20395;-57
2022/01/29 08:32:55;;;;;;;16.42;7.70;;;4.00;99.90;;;;;;5070174;28;20777;-57
2022/01/29 08:35:21;;;;;;;14.55;7.18;;;4.10;99.90;;;;;;5070719;28;20460;-56
2022/01/29 08:37:46;;;;;;;14.60;7.00;;;5.10;99.90;;;;;;5070102;28;20391;-56
2022/01/29 08:40:13;;;;;;;14.23;7.20;;;4.20;99.90;;;;;;5067600;28;20418;-56
2022/01/29 08:42:39;;;;;;;13.93;6.40;;;4.10;99.90;;;;;;5072359;28;20408;-56
2022/01/29 08:45:07;;;;;;;14.98;6.60;;;4.20;99.90;;;;;;5078271;28;20718;-57
2022/01/29 08:47:33;;;;;;;11.05;6.05;;;4.30;99.90;;;;;;5070099;28;20468;-57
2022/01/29 08:50:00;;;;;;;10.67;5.23;;;4.30;99.90;;;;;;5083563;28;20870;-57
2022/01/29 08:52:27;;;;;;;10.15;5.03;;;4.40;99.90;;;;;;5088620;28;20406;-57
2022/01/29 08:54:52;;;;;;;8.73;4.43;;;4.30;99.90;;;;;;5088902;28;20442;-57
2022/01/29 08:57:18;;;;;;;10.38;4.78;;;4.30;99.90;;;;;;5087806;28;20389;-56
2022/01/29 08:59:44;;;;;;;10.67;4.97;;;4.40;99.90;;;;;;5088098;28;20378;-56
2022/01/29 09:02:09;;;;;;;11.25;4.72;;;4.40;99.90;;;;;;5088254;28;20378;-56
2022/01/29 09:04:35;;;;;;;9.20;4.40;;;4.60;99.90;;;;;;5087871;28;20390;-56
2022/01/29 09:07:01;;;;;;;10.03;4.80;;;4.60;99.90;;;;;;5088445;28;20882;-57
2022/01/29 09:09:27;;;;;;;8.77;4.45;;;4.80;99.90;;;;;;5089418;28;20493;-57
2022/01/29 09:11:53;;;;;;;8.07;4.05;;;4.80;99.90;;;;;;5088828;28;20429;-56
2022/01/29 09:14:20;;;;;;;11.32;4.97;;;4.80;99.90;;;;;;5092141;28;20386;-57
2022/01/29 09:16:46;;;;;;;8.13;4.25;;;4.90;99.90;;;;;;5089017;28;20409;-57
2022/01/29 09:19:12;;;;;;;7.65;4.00;;;5.00;99.90;;;;;;5086977;28;20451;-56
2022/01/29 09:21:39;;;;;;;9.82;3.92;;;5.10;99.90;;;;;;5089135;28;20395;-56
2022/01/29 09:24:05;;;;;;;8.63;4.15;;;5.10;99.90;;;;;;5085230;28;20426;-56
2022/01/29 09:26:30;;;;;;;8.27;4.38;;;5.30;99.90;;;;;;5089261;28;20466;-56
2022/01/29 09:28:56;;;;;;;9.23;3.85;;;5.50;99.90;;;;;;5088627;28;20863;-57
2022/01/29 09:31:22;;;;;;;10.10;4.22;;;5.70;99.90;;;;;;5087097;28;20427;-56
2022/01/29 09:33:48;;;;;;;8.20;3.70;;;6.20;99.90;;;;;;5088965;28;20438;-56
2022/01/29 09:36:14;;;;;;;9.13;3.60;;;5.70;99.90;;;;;;5087975;28;21024;-56
2022/01/29 09:38:40;;;;;;;9.33;4.07;;;5.90;99.90;;;;;;5088190;28;20388;-56
2022/01/29 09:41:07;;;;;;;7.40;3.50;;;5.80;99.90;;;;;;5086744;28;20390;-56
2022/01/29 09:43:34;;;;;;;10.50;4.15;;;6.10;99.90;;;;;;5089245;28;20382;-56
2022/01/29 09:46:00;;;;;;;8.77;3.40;;;6.10;99.90;;;;;;5087950;28;21008;-56
2022/01/29 09:48:28;;;;;;;8.95;3.50;;;6.00;99.90;;;;;;5090807;28;20396;-56
2022/01/29 09:50:56;;;;;;;7.88;3.60;;;6.10;99.90;;;;;;5088229;28;20393;-56
2022/01/29 09:53:21;;;;;;;8.38;3.30;;;6.00;99.90;;;;;;5091075;28;20420;-56
2022/01/29 09:55:47;;;;;;;7.50;3.27;;;6.10;99.90;;;;;;5093301;28;20817;-56
2022/01/29 09:58:13;;;;;;;7.60;3.47;;;6.30;99.90;;;;;;5092165;28;20395;-56
2022/01/29 10:00:39;;;;;;;8.88;3.47;;;6.30;99.90;;;;;;5086104;28;20902;-55
2022/01/29 10:03:11;;;;;;;7.28;3.38;;;6.20;99.90;;;;;;5088883;28;20490;-56
2022/01/29 10:05:45;;;;;;;7.67;2.90;;;7.00;99.90;;;;;;5089442;28;20390;-56
2022/01/29 10:08:11;;;;;;;7.88;3.40;;;5.90;99.90;;;;;;5082264;28;20455;-56
2022/01/29 10:10:42;;;;;;;8.50;3.78;;;6.10;99.90;;;;;;5084632;28;20382;-56
2022/01/29 10:13:36;;;;;;;8.90;3.20;;;6.30;99.90;;;;;;5086655;28;20463;-56
2022/01/29 10:16:12;;;;;;;6.40;2.90;;;6.40;99.90;;;;;;5091528;28;20401;-57
2022/01/29 10:18:45;;;;;;;8.40;3.83;;;6.50;99.90;;;;;;5092429;28;20414;-57
2022/01/29 10:21:20;;;;;;;8.45;4.20;;;6.50;99.90;;;;;;5088510;28;20481;-56
2022/01/29 10:23:46;;;;;;;7.70;3.63;;;6.70;99.90;;;;;;5089057;28;20390;-57
2022/01/29 10:26:28;;;;;;;7.77;3.30;;;6.80;99.90;;;;;;5086374;28;20457;-56
2022/01/29 10:28:55;;;;;;;9.77;5.10;;;6.70;99.90;;;;;;5085496;28;20419;-57
2022/01/29 10:31:21;;;;;;;8.75;3.40;;;6.80;99.90;;;;;;5088850;28;20457;-57
2022/01/29 10:33:47;;;;;;;9.63;3.80;;;6.80;99.90;;;;;;5085955;28;20379;-56
2022/01/29 10:36:19;;;;;;;10.43;5.27;;;6.90;99.90;;;;;;5071037;28;20873;-56
2022/01/29 10:38:51;;;;;;;9.25;4.30;;;6.90;99.90;;;;;;5071514;28;20387;-55
2022/01/29 10:41:22;;;;;;;28.47;14.90;;;6.90;99.90;;;;;;5071027;28;20466;-55
2022/01/29 10:44:14;;;;;;;18.40;8.77;;;7.00;99.90;;;;;;5072670;28;20446;-55
2022/01/29 10:46:45;;;;;;;27.92;14.77;;;7.20;99.90;;;;;;5082581;28;20738;-55
2022/01/29 10:49:30;;;;;;;21.42;9.75;;;7.20;99.90;;;;;;5070075;28;20392;-56
2022/01/29 10:52:08;;;;;;;11.60;5.65;;;7.10;99.90;;;;;;5071997;28;20403;-57
2022/01/29 10:54:36;;;;;;;19.45;10.70;;;7.20;99.90;;;;;;5071516;28;20464;-56
2022/01/29 10:57:03;;;;;;;15.32;8.65;;;7.20;99.90;;;;;;5084558;28;20399;-57
2022/01/29 10:59:31;;;;;;;7.65;3.63;;;7.30;99.90;;;;;;5073938;28;20862;-56
2022/01/29 11:02:02;;;;;;;9.15;4.03;;;7.40;99.90;;;;;;5078377;28;20396;-56
2022/01/29 11:04:30;;;;;;;10.13;4.10;;;7.40;99.90;;;;;;5088026;28;20473;-56
2022/01/29 11:07:01;;;;;;;9.00;4.20;;;7.50;99.90;;;;;;5086267;28;20922;-56
2022/01/29 11:09:28;;;;;;;9.18;4.38;;;7.50;99.90;;;;;;5090237;28;20381;-55
2022/01/29 11:11:57;;;;;;;13.02;7.68;;;7.60;99.90;;;;;;5085540;28;20476;-56
2022/01/29 11:14:24;;;;;;;9.55;4.60;;;7.80;99.90;;;;;;5093809;28;20697;-56
2022/01/29 11:16:52;;;;;;;11.15;5.40;;;7.80;99.90;;;;;;5101964;28;20418;-56
2022/01/29 11:19:18;;;;;;;8.10;3.72;;;7.80;99.90;;;;;;5090459;28;20390;-55
2022/01/29 11:21:47;;;;;;;7.95;3.60;;;7.90;99.90;;;;;;5091958;28;20388;-55
2022/01/29 11:24:16;;;;;;;7.55;3.60;;;8.00;99.90;;;;;;5089886;28;20395;-56
2022/01/29 11:26:44;;;;;;;7.38;2.63;;;8.20;99.90;;;;;;5092886;28;20465;-55
2022/01/29 11:29:35;;;;;;;5.90;2.20;;;8.20;99.90;;;;;;5090949;28;20397;-56
2022/01/29 11:32:20;;;;;;;4.23;1.00;;;8.30;99.90;;;;;;5089413;28;20422;-55
2022/01/29 11:35:03;;;;;;;3.50;0.70;;;8.10;99.90;;;;;;5094152;28;20455;-55
2022/01/29 11:37:43;;;;;;;4.00;0.80;;;7.80;99.90;;;;;;5090083;28;20550;-55
2022/01/29 11:40:20;;;;;;;4.38;0.88;;;7.80;99.90;;;;;;5088272;28;20663;-55
2022/01/29 11:43:14;;;;;;;3.80;1.00;;;8.00;99.90;;;;;;5085626;28;20822;-54
2022/01/29 11:45:49;;;;;;;4.18;1.40;;;8.20;99.90;;;;;;5083884;28;20902;-55
2022/01/29 11:48:31;;;;;;;5.43;1.30;;;8.20;99.90;;;;;;5094048;28;20752;-55
2022/01/29 11:51:10;;;;;;;4.10;0.98;;;8.10;99.90;;;;;;5089785;28;20429;-55
2022/01/29 11:53:45;;;;;;;5.80;1.17;;;8.20;99.90;;;;;;5090267;28;20416;-54
2022/01/29 11:56:29;;;;;;;6.10;1.60;;;8.20;99.90;;;;;;5086927;28;20402;-55
2022/01/29 11:59:20;;;;;;;6.82;1.85;;;8.10;99.90;;;;;;5093220;28;20404;-55
2022/01/29 12:01:46;;;;;;;6.60;1.00;;;8.20;99.90;;;;;;5086526;28;20494;-55
2022/01/29 12:04:12;;;;;;;7.97;1.80;;;8.20;99.90;;;;;;5087906;28;20402;-55
2022/01/29 12:07:10;;;;;;;5.40;1.40;;;8.30;99.90;;;;;;5086669;28;20398;-55
2022/01/29 12:09:47;;;;;;;6.72;1.85;;;8.30;99.90;;;;;;5084568;28;20417;-55
2022/01/29 12:12:28;;;;;;;6.30;2.20;;;8.50;99.90;;;;;;5083539;28;20466;-55
2022/01/29 12:15:17;;;;;;;8.30;1.80;;;8.50;99.90;;;;;;5082526;28;20394;-55
2022/01/29 12:17:58;;;;;;;4.22;0.80;;;8.40;99.90;;;;;;5076489;28;20443;-55
2022/01/29 12:20:25;;;;;;;3.78;0.70;;;8.30;99.90;;;;;;5080211;28;20473;-55
2022/01/29 12:22:56;;;;;;;3.70;0.70;;;8.10;99.90;;;;;;5089112;28;20446;-55
2022/01/29 12:25:24;;;;;;;3.50;0.70;;;8.10;99.90;;;;;;5087041;28;20382;-55
2022/01/29 12:27:57;;;;;;;3.65;0.73;;;8.20;99.90;;;;;;5089931;28;20830;-55
2022/01/29 12:30:37;;;;;;;4.30;0.60;;;8.10;99.90;;;;;;5089322;28;20378;-55
2022/01/29 12:33:06;;;;;;;3.58;0.70;;;8.00;99.90;;;;;;5090006;28;20402;-55
2022/01/29 12:35:42;;;;;;;4.90;1.47;;;8.10;99.90;;;;;;5089605;28;20378;-55
2022/01/29 12:38:15;;;;;;;5.30;1.50;;;8.20;99.90;;;;;;5088026;28;20457;-55
2022/01/29 12:40:50;;;;;;;6.03;1.80;;;8.20;99.90;;;;;;5090051;28;20369;-55
2022/01/29 12:43:33;;;;;;;6.32;2.20;;;8.40;99.90;;;;;;5088841;28;20863;-55
2022/01/29 12:46:12;;;;;;;5.60;1.60;;;8.50;99.90;;;;;;5090236;28;20401;-55
2022/01/29 12:48:39;;;;;;;5.63;1.50;;;8.40;99.90;;;;;;5089835;28;20378;-55
2022/01/29 12:51:07;;;;;;;4.70;1.40;;;8.60;99.90;;;;;;5089539;28;20419;-56
2022/01/29 12:53:32;;;;;;;4.75;1.70;;;8.30;99.90;;;;;;5087571;28;20725;-55
2022/01/29 12:56:10;;;;;;;4.87;1.50;;;8.10;99.90;;;;;;5079885;28;20392;-55
2022/01/29 12:58:42;;;;;;;5.85;2.10;;;8.10;99.90;;;;;;5081961;28;20449;-55
2022/01/29 13:01:13;;;;;;;6.50;1.60;;;7.90;99.90;;;;;;5092111;28;20815;-56